sensor_id;sensor_type;location;lat;lon;timestamp;P1;durP1;ratioP1;P2;durP2;ratioP2
23543;SDS011;11950;51.230;4.012;2024-01-10T00:01:47;7.20;;;3.08;;
23543;SDS011;11950;51.230;4.012;2024-01-10T00:04:13;7.78;;;3.60;;
23543;SDS011;11950;51.230;4.012;2024-01-10T00:06:42;8.57;;;3.60;;
23543;SDS011;11950;51.230;4.012;2024-01-10T00:09:09;8.40;;;3.65;;
23543;SDS011;11950;51.230;4.012;2024-01-10T00:11:35;8.77;;;3.45;;
23543;SDS011;11950;51.230;4.012;2024-01-10T00:14:01;8.35;;;3.95;;
23543;SDS011;11950;51.230;4.012;2024-01-10T00:16:29;8.02;;;2.95;;
23543;SDS011;11950;51.230;4.012;2024-01-10T00:18:55;7.82;;;3.40;;
23543;SDS011;11950;51.230;4.012;2024-01-10T00:21:21;8.05;;;3.45;;
23543;SDS011;11950;51.230;4.012;2024-01-10T00:23:47;6.35;;;3.20;;
23543;SDS011;11950;51.230;4.012;2024-01-10T00:26:16;7.63;;;3.40;;
23543;SDS011;11950;51.230;4.012;2024-01-10T00:28:42;6.38;;;3.40;;
23543;SDS011;11950;51.230;4.012;2024-01-10T00:31:12;7.20;;;3.20;;
23543;SDS011;11950;51.230;4.012;2024-01-10T00:33:39;6.80;;;3.33;;
23543;SDS011;11950;51.230;4.012;2024-01-10T00:36:05;7.82;;;3.17;;
23543;SDS011;11950;51.230;4.012;2024-01-10T00:38:32;9.85;;;3.45;;
23543;SDS011;11950;51.230;4.012;2024-01-10T00:40:59;7.73;;;3.77;;
23543;SDS011;11950;51.230;4.012;2024-01-10T00:43:25;6.55;;;3.28;;
23543;SDS011;11950;51.230;4.012;2024-01-10T00:45:51;6.47;;;3.28;;
23543;SDS011;11950;51.230;4.012;2024-01-10T00:48:18;6.32;;;3.20;;
23543;SDS011;11950;51.230;4.012;2024-01-10T00:50:44;6.57;;;3.20;;
23543;SDS011;11950;51.230;4.012;2024-01-10T00:53:10;4.90;;;2.92;;
23543;SDS011;11950;51.230;4.012;2024-01-10T00:55:36;6.95;;;3.17;;
23543;SDS011;11950;51.230;4.012;2024-01-10T00:58:03;8.00;;;3.40;;
23543;SDS011;11950;51.230;4.012;2024-01-10T01:00:29;8.40;;;3.07;;
23543;SDS011;11950;51.230;4.012;2024-01-10T01:02:55;5.73;;;2.67;;
23543;SDS011;11950;51.230;4.012;2024-01-10T01:05:22;5.30;;;3.10;;
23543;SDS011;11950;51.230;4.012;2024-01-10T01:07:48;7.27;;;3.17;;
23543;SDS011;11950;51.230;4.012;2024-01-10T01:10:14;7.50;;;3.33;;
23543;SDS011;11950;51.230;4.012;2024-01-10T01:12:40;7.60;;;3.57;;
23543;SDS011;11950;51.230;4.012;2024-01-10T01:15:06;7.70;;;3.40;;
23543;SDS011;11950;51.230;4.012;2024-01-10T01:17:33;7.30;;;3.20;;
23543;SDS011;11950;51.230;4.012;2024-01-10T01:20:00;7.27;;;3.63;;
23543;SDS011;11950;51.230;4.012;2024-01-10T01:22:26;6.97;;;2.63;;
23543;SDS011;11950;51.230;4.012;2024-01-10T01:24:52;9.43;;;3.17;;
23543;SDS011;11950;51.230;4.012;2024-01-10T01:27:18;5.13;;;3.17;;
23543;SDS011;11950;51.230;4.012;2024-01-10T01:29:45;6.57;;;3.03;;
23543;SDS011;11950;51.230;4.012;2024-01-10T01:32:11;8.13;;;3.27;;
23543;SDS011;11950;51.230;4.012;2024-01-10T01:34:37;5.63;;;2.77;;
23543;SDS011;11950;51.230;4.012;2024-01-10T01:37:03;6.20;;;3.10;;
23543;SDS011;11950;51.230;4.012;2024-01-10T01:39:29;6.87;;;3.70;;
23543;SDS011;11950;51.230;4.012;2024-01-10T01:41:56;10.20;;;3.43;;
23543;SDS011;11950;51.230;4.012;2024-01-10T01:44:22;7.80;;;3.60;;
23543;SDS011;11950;51.230;4.012;2024-01-10T01:46:48;4.87;;;2.90;;
23543;SDS011;11950;51.230;4.012;2024-01-10T01:49:15;6.50;;;3.42;;
23543;SDS011;11950;51.230;4.012;2024-01-10T01:51:41;8.60;;;3.33;;
23543;SDS011;11950;51.230;4.012;2024-01-10T01:54:08;8.87;;;3.17;;
23543;SDS011;11950;51.230;4.012;2024-01-10T01:56:36;5.23;;;2.77;;
23543;SDS011;11950;51.230;4.012;2024-01-10T01:59:06;6.53;;;3.13;;
23543;SDS011;11950;51.230;4.012;2024-01-10T02:01:32;5.27;;;3.00;;
23543;SDS011;11950;51.230;4.012;2024-01-10T02:04:00;7.30;;;3.47;;
23543;SDS011;11950;51.230;4.012;2024-01-10T02:06:31;7.17;;;3.00;;
23543;SDS011;11950;51.230;4.012;2024-01-10T02:08:58;5.97;;;2.93;;
23543;SDS011;11950;51.230;4.012;2024-01-10T02:11:25;8.47;;;3.43;;
23543;SDS011;11950;51.230;4.012;2024-01-10T02:13:52;7.73;;;3.50;;
23543;SDS011;11950;51.230;4.012;2024-01-10T02:16:20;6.10;;;3.10;;
23543;SDS011;11950;51.230;4.012;2024-01-10T02:18:49;6.67;;;3.50;;
23543;SDS011;11950;51.230;4.012;2024-01-10T02:21:16;5.87;;;2.73;;
23543;SDS011;11950;51.230;4.012;2024-01-10T02:23:46;6.47;;;2.80;;
23543;SDS011;11950;51.230;4.012;2024-01-10T02:26:12;6.50;;;3.03;;
23543;SDS011;11950;51.230;4.012;2024-01-10T02:28:39;8.73;;;3.10;;
23543;SDS011;11950;51.230;4.012;2024-01-10T02:31:05;5.53;;;2.80;;
23543;SDS011;11950;51.230;4.012;2024-01-10T02:33:32;6.40;;;3.07;;
23543;SDS011;11950;51.230;4.012;2024-01-10T02:35:59;5.60;;;2.40;;
23543;SDS011;11950;51.230;4.012;2024-01-10T02:38:26;6.87;;;3.10;;
23543;SDS011;11950;51.230;4.012;2024-01-10T02:40:52;6.27;;;2.50;;
23543;SDS011;11950;51.230;4.012;2024-01-10T02:43:21;7.87;;;3.23;;
23543;SDS011;11950;51.230;4.012;2024-01-10T02:45:47;6.20;;;3.30;;
23543;SDS011;11950;51.230;4.012;2024-01-10T02:48:13;5.77;;;2.73;;
23543;SDS011;11950;51.230;4.012;2024-01-10T02:50:39;4.37;;;2.50;;
23543;SDS011;11950;51.230;4.012;2024-01-10T02:53:06;6.10;;;2.90;;
23543;SDS011;11950;51.230;4.012;2024-01-10T02:55:32;6.73;;;3.10;;
23543;SDS011;11950;51.230;4.012;2024-01-10T02:57:58;6.87;;;3.27;;
23543;SDS011;11950;51.230;4.012;2024-01-10T03:00:24;5.70;;;2.60;;
23543;SDS011;11950;51.230;4.012;2024-01-10T03:02:51;7.27;;;3.07;;
23543;SDS011;11950;51.230;4.012;2024-01-10T03:05:17;6.43;;;2.97;;
23543;SDS011;11950;51.230;4.012;2024-01-10T03:07:43;6.33;;;2.43;;
23543;SDS011;11950;51.230;4.012;2024-01-10T03:10:09;6.50;;;3.27;;
23543;SDS011;11950;51.230;4.012;2024-01-10T03:12:35;4.70;;;2.87;;
23543;SDS011;11950;51.230;4.012;2024-01-10T03:15:04;8.23;;;2.87;;
23543;SDS011;11950;51.230;4.012;2024-01-10T03:17:31;5.50;;;2.47;;
23543;SDS011;11950;51.230;4.012;2024-01-10T03:19:59;5.87;;;3.33;;
23543;SDS011;11950;51.230;4.012;2024-01-10T03:22:25;4.90;;;2.90;;
23543;SDS011;11950;51.230;4.012;2024-01-10T03:24:51;6.07;;;3.03;;
23543;SDS011;11950;51.230;4.012;2024-01-10T03:27:18;8.20;;;3.07;;
23543;SDS011;11950;51.230;4.012;2024-01-10T03:29:44;8.80;;;3.40;;
23543;SDS011;11950;51.230;4.012;2024-01-10T03:32:10;6.40;;;2.97;;
23543;SDS011;11950;51.230;4.012;2024-01-10T03:34:36;6.83;;;2.90;;
23543;SDS011;11950;51.230;4.012;2024-01-10T03:37:03;7.63;;;3.13;;
23543;SDS011;11950;51.230;4.012;2024-01-10T03:39:29;7.07;;;3.10;;
23543;SDS011;11950;51.230;4.012;2024-01-10T03:41:56;6.57;;;3.10;;
23543;SDS011;11950;51.230;4.012;2024-01-10T03:44:23;7.10;;;3.20;;
23543;SDS011;11950;51.230;4.012;2024-01-10T03:46:49;5.80;;;2.87;;
23543;SDS011;11950;51.230;4.012;2024-01-10T03:49:15;4.80;;;2.60;;
23543;SDS011;11950;51.230;4.012;2024-01-10T03:51:41;4.60;;;2.73;;
23543;SDS011;11950;51.230;4.012;2024-01-10T03:54:07;4.97;;;2.60;;
23543;SDS011;11950;51.230;4.012;2024-01-10T03:56:34;8.03;;;3.30;;
23543;SDS011;11950;51.230;4.012;2024-01-10T03:59:00;7.67;;;3.10;;
23543;SDS011;11950;51.230;4.012;2024-01-10T04:01:29;6.10;;;2.90;;
23543;SDS011;11950;51.230;4.012;2024-01-10T04:03:55;6.80;;;2.83;;
23543;SDS011;11950;51.230;4.012;2024-01-10T04:06:22;7.67;;;3.20;;
23543;SDS011;11950;51.230;4.012;2024-01-10T04:08:48;5.33;;;2.67;;
23543;SDS011;11950;51.230;4.012;2024-01-10T04:11:14;6.60;;;2.83;;
23543;SDS011;11950;51.230;4.012;2024-01-10T04:13:40;8.20;;;2.93;;
23543;SDS011;11950;51.230;4.012;2024-01-10T04:16:07;5.67;;;2.97;;
23543;SDS011;11950;51.230;4.012;2024-01-10T04:18:33;6.17;;;3.10;;
23543;SDS011;11950;51.230;4.012;2024-01-10T04:20:59;7.87;;;3.40;;
23543;SDS011;11950;51.230;4.012;2024-01-10T04:23:26;5.30;;;2.87;;
23543;SDS011;11950;51.230;4.012;2024-01-10T04:25:52;5.80;;;2.67;;
23543;SDS011;11950;51.230;4.012;2024-01-10T04:28:18;7.30;;;3.07;;
23543;SDS011;11950;51.230;4.012;2024-01-10T04:30:45;5.77;;;2.63;;
23543;SDS011;11950;51.230;4.012;2024-01-10T04:33:11;4.93;;;2.50;;
23543;SDS011;11950;51.230;4.012;2024-01-10T04:35:38;5.83;;;2.70;;
23543;SDS011;11950;51.230;4.012;2024-01-10T04:38:04;5.33;;;2.80;;
23543;SDS011;11950;51.230;4.012;2024-01-10T04:40:30;4.93;;;2.80;;
23543;SDS011;11950;51.230;4.012;2024-01-10T04:42:56;6.03;;;2.60;;
23543;SDS011;11950;51.230;4.012;2024-01-10T04:45:22;6.37;;;2.67;;
23543;SDS011;11950;51.230;4.012;2024-01-10T04:47:49;6.73;;;2.67;;
23543;SDS011;11950;51.230;4.012;2024-01-10T04:50:15;5.00;;;2.43;;
23543;SDS011;11950;51.230;4.012;2024-01-10T04:52:41;5.63;;;3.13;;
23543;SDS011;11950;51.230;4.012;2024-01-10T04:55:08;7.13;;;3.23;;
23543;SDS011;11950;51.230;4.012;2024-01-10T04:57:34;6.13;;;2.90;;
23543;SDS011;11950;51.230;4.012;2024-01-10T05:00:01;6.17;;;2.73;;
23543;SDS011;11950;51.230;4.012;2024-01-10T05:02:29;5.57;;;2.37;;
23543;SDS011;11950;51.230;4.012;2024-01-10T05:04:55;5.17;;;2.80;;
23543;SDS011;11950;51.230;4.012;2024-01-10T05:07:21;6.30;;;3.00;;
23543;SDS011;11950;51.230;4.012;2024-01-10T05:09:47;6.27;;;2.73;;
23543;SDS011;11950;51.230;4.012;2024-01-10T05:12:14;6.23;;;2.47;;
23543;SDS011;11950;51.230;4.012;2024-01-10T05:14:40;6.33;;;2.80;;
23543;SDS011;11950;51.230;4.012;2024-01-10T05:17:06;6.10;;;2.67;;
23543;SDS011;11950;51.230;4.012;2024-01-10T05:19:32;5.70;;;2.60;;
23543;SDS011;11950;51.230;4.012;2024-01-10T05:21:58;6.27;;;3.07;;
23543;SDS011;11950;51.230;4.012;2024-01-10T05:24:25;5.87;;;2.70;;
23543;SDS011;11950;51.230;4.012;2024-01-10T05:26:51;6.50;;;2.70;;
23543;SDS011;11950;51.230;4.012;2024-01-10T05:29:17;5.93;;;3.03;;
23543;SDS011;11950;51.230;4.012;2024-01-10T05:31:45;5.80;;;2.90;;
23543;SDS011;11950;51.230;4.012;2024-01-10T05:34:12;6.87;;;2.60;;
23543;SDS011;11950;51.230;4.012;2024-01-10T05:36:38;6.27;;;2.93;;
23543;SDS011;11950;51.230;4.012;2024-01-10T05:39:05;6.93;;;3.03;;
23543;SDS011;11950;51.230;4.012;2024-01-10T05:41:31;6.23;;;2.87;;
23543;SDS011;11950;51.230;4.012;2024-01-10T05:43:57;7.67;;;2.80;;
23543;SDS011;11950;51.230;4.012;2024-01-10T05:46:23;7.90;;;2.83;;
23543;SDS011;11950;51.230;4.012;2024-01-10T05:48:50;6.07;;;2.87;;
23543;SDS011;11950;51.230;4.012;2024-01-10T05:51:16;6.17;;;2.73;;
23543;SDS011;11950;51.230;4.012;2024-01-10T05:53:45;8.33;;;3.17;;
23543;SDS011;11950;51.230;4.012;2024-01-10T05:56:11;4.50;;;2.73;;
23543;SDS011;11950;51.230;4.012;2024-01-10T05:58:38;4.97;;;2.50;;
23543;SDS011;11950;51.230;4.012;2024-01-10T06:01:05;5.23;;;2.80;;
23543;SDS011;11950;51.230;4.012;2024-01-10T06:03:35;6.20;;;3.60;;
23543;SDS011;11950;51.230;4.012;2024-01-10T06:06:02;8.07;;;2.83;;
23543;SDS011;11950;51.230;4.012;2024-01-10T06:08:29;5.87;;;2.80;;
23543;SDS011;11950;51.230;4.012;2024-01-10T06:10:56;7.77;;;2.93;;
23543;SDS011;11950;51.230;4.012;2024-01-10T06:13:22;5.53;;;2.63;;
23543;SDS011;11950;51.230;4.012;2024-01-10T06:15:48;7.63;;;3.70;;
23543;SDS011;11950;51.230;4.012;2024-01-10T06:18:16;9.93;;;3.27;;
23543;SDS011;11950;51.230;4.012;2024-01-10T06:20:42;5.57;;;2.83;;
23543;SDS011;11950;51.230;4.012;2024-01-10T06:23:08;8.20;;;3.10;;
23543;SDS011;11950;51.230;4.012;2024-01-10T06:25:34;8.00;;;3.17;;
23543;SDS011;11950;51.230;4.012;2024-01-10T06:28:01;5.67;;;3.13;;
23543;SDS011;11950;51.230;4.012;2024-01-10T06:30:27;5.97;;;3.23;;
23543;SDS011;11950;51.230;4.012;2024-01-10T06:32:53;6.00;;;2.93;;
23543;SDS011;11950;51.230;4.012;2024-01-10T06:35:20;9.50;;;3.00;;
23543;SDS011;11950;51.230;4.012;2024-01-10T06:37:47;8.07;;;3.23;;
23543;SDS011;11950;51.230;4.012;2024-01-10T06:40:13;9.07;;;3.80;;
23543;SDS011;11950;51.230;4.012;2024-01-10T06:42:39;7.73;;;3.20;;
23543;SDS011;11950;51.230;4.012;2024-01-10T06:45:06;6.27;;;3.03;;
23543;SDS011;11950;51.230;4.012;2024-01-10T06:47:34;6.63;;;3.17;;
23543;SDS011;11950;51.230;4.012;2024-01-10T06:50:01;6.60;;;3.37;;
23543;SDS011;11950;51.230;4.012;2024-01-10T06:52:27;8.20;;;3.03;;
23543;SDS011;11950;51.230;4.012;2024-01-10T06:54:53;8.30;;;3.13;;
23543;SDS011;11950;51.230;4.012;2024-01-10T06:57:20;7.03;;;3.37;;
23543;SDS011;11950;51.230;4.012;2024-01-10T06:59:46;6.53;;;3.10;;
23543;SDS011;11950;51.230;4.012;2024-01-10T07:02:13;7.67;;;3.67;;
23543;SDS011;11950;51.230;4.012;2024-01-10T07:04:39;6.60;;;3.37;;
23543;SDS011;11950;51.230;4.012;2024-01-10T07:07:05;9.50;;;3.00;;
23543;SDS011;11950;51.230;4.012;2024-01-10T07:09:34;6.77;;;3.13;;
23543;SDS011;11950;51.230;4.012;2024-01-10T07:12:00;7.27;;;2.80;;
23543;SDS011;11950;51.230;4.012;2024-01-10T07:14:27;10.37;;;3.40;;
23543;SDS011;11950;51.230;4.012;2024-01-10T07:16:54;8.23;;;3.30;;
23543;SDS011;11950;51.230;4.012;2024-01-10T07:19:22;4.07;;;2.57;;
23543;SDS011;11950;51.230;4.012;2024-01-10T07:21:49;7.43;;;3.07;;
23543;SDS011;11950;51.230;4.012;2024-01-10T07:24:15;6.43;;;3.00;;
23543;SDS011;11950;51.230;4.012;2024-01-10T07:26:42;6.23;;;3.43;;
23543;SDS011;11950;51.230;4.012;2024-01-10T07:29:08;6.77;;;3.67;;
23543;SDS011;11950;51.230;4.012;2024-01-10T07:31:34;6.60;;;2.93;;
23543;SDS011;11950;51.230;4.012;2024-01-10T07:34:01;7.77;;;3.27;;
23543;SDS011;11950;51.230;4.012;2024-01-10T07:36:31;6.83;;;3.47;;
23543;SDS011;11950;51.230;4.012;2024-01-10T07:39:02;8.80;;;3.87;;
23543;SDS011;11950;51.230;4.012;2024-01-10T07:41:28;9.20;;;4.30;;
23543;SDS011;11950;51.230;4.012;2024-01-10T07:43:56;5.73;;;3.50;;
23543;SDS011;11950;51.230;4.012;2024-01-10T07:46:22;7.03;;;4.00;;
23543;SDS011;11950;51.230;4.012;2024-01-10T07:48:49;5.97;;;3.17;;
23543;SDS011;11950;51.230;4.012;2024-01-10T07:51:15;7.43;;;3.50;;
23543;SDS011;11950;51.230;4.012;2024-01-10T07:53:42;7.57;;;3.90;;
23543;SDS011;11950;51.230;4.012;2024-01-10T07:56:08;6.87;;;3.13;;
23543;SDS011;11950;51.230;4.012;2024-01-10T07:58:34;6.50;;;3.40;;
23543;SDS011;11950;51.230;4.012;2024-01-10T08:01:00;9.10;;;3.90;;
23543;SDS011;11950;51.230;4.012;2024-01-10T08:03:28;8.00;;;3.50;;
23543;SDS011;11950;51.230;4.012;2024-01-10T08:05:54;6.17;;;2.97;;
23543;SDS011;11950;51.230;4.012;2024-01-10T08:08:20;6.10;;;2.93;;
23543;SDS011;11950;51.230;4.012;2024-01-10T08:10:46;7.90;;;3.73;;
23543;SDS011;11950;51.230;4.012;2024-01-10T08:13:13;6.07;;;3.43;;
23543;SDS011;11950;51.230;4.012;2024-01-10T08:15:39;6.97;;;3.73;;
23543;SDS011;11950;51.230;4.012;2024-01-10T08:18:07;8.80;;;3.40;;
23543;SDS011;11950;51.230;4.012;2024-01-10T08:20:33;9.77;;;3.50;;
23543;SDS011;11950;51.230;4.012;2024-01-10T08:22:59;8.47;;;3.50;;
23543;SDS011;11950;51.230;4.012;2024-01-10T08:25:26;9.00;;;3.50;;
23543;SDS011;11950;51.230;4.012;2024-01-10T08:27:52;8.70;;;3.60;;
23543;SDS011;11950;51.230;4.012;2024-01-10T08:30:19;11.43;;;3.80;;
23543;SDS011;11950;51.230;4.012;2024-01-10T08:32:47;9.17;;;4.20;;
23543;SDS011;11950;51.230;4.012;2024-01-10T08:35:14;7.83;;;3.37;;
23543;SDS011;11950;51.230;4.012;2024-01-10T08:37:40;11.17;;;3.90;;
23543;SDS011;11950;51.230;4.012;2024-01-10T08:40:11;7.80;;;4.13;;
23543;SDS011;11950;51.230;4.012;2024-01-10T08:42:40;8.20;;;3.70;;
23543;SDS011;11950;51.230;4.012;2024-01-10T08:45:07;9.30;;;3.93;;
23543;SDS011;11950;51.230;4.012;2024-01-10T08:47:35;10.57;;;3.97;;
23543;SDS011;11950;51.230;4.012;2024-01-10T08:50:02;6.67;;;4.00;;
23543;SDS011;11950;51.230;4.012;2024-01-10T08:52:31;10.97;;;4.23;;
23543;SDS011;11950;51.230;4.012;2024-01-10T08:54:57;9.57;;;4.10;;
23543;SDS011;11950;51.230;4.012;2024-01-10T08:57:23;7.57;;;3.40;;
23543;SDS011;11950;51.230;4.012;2024-01-10T08:59:52;6.80;;;3.93;;
23543;SDS011;11950;51.230;4.012;2024-01-10T09:02:18;8.67;;;3.83;;
23543;SDS011;11950;51.230;4.012;2024-01-10T09:04:44;7.80;;;3.20;;
23543;SDS011;11950;51.230;4.012;2024-01-10T09:07:10;7.43;;;3.67;;
23543;SDS011;11950;51.230;4.012;2024-01-10T09:09:37;10.93;;;4.20;;
23543;SDS011;11950;51.230;4.012;2024-01-10T09:12:03;10.23;;;4.37;;
23543;SDS011;11950;51.230;4.012;2024-01-10T09:14:29;8.67;;;3.80;;
23543;SDS011;11950;51.230;4.012;2024-01-10T09:16:56;11.03;;;3.93;;
23543;SDS011;11950;51.230;4.012;2024-01-10T09:19:22;10.30;;;4.43;;
23543;SDS011;11950;51.230;4.012;2024-01-10T09:21:48;11.53;;;4.40;;
23543;SDS011;11950;51.230;4.012;2024-01-10T09:24:15;9.50;;;4.37;;
23543;SDS011;11950;51.230;4.012;2024-01-10T09:26:42;14.40;;;4.23;;
23543;SDS011;11950;51.230;4.012;2024-01-10T09:29:09;9.30;;;4.20;;
23543;SDS011;11950;51.230;4.012;2024-01-10T09:31:36;10.73;;;4.45;;
23543;SDS011;11950;51.230;4.012;2024-01-10T09:34:02;7.30;;;3.60;;
23543;SDS011;11950;51.230;4.012;2024-01-10T09:36:28;7.90;;;3.95;;
23543;SDS011;11950;51.230;4.012;2024-01-10T09:38:54;9.97;;;4.57;;
23543;SDS011;11950;51.230;4.012;2024-01-10T09:41:20;8.68;;;4.15;;
23543;SDS011;11950;51.230;4.012;2024-01-10T09:43:48;12.13;;;4.83;;
23543;SDS011;11950;51.230;4.012;2024-01-10T09:46:14;12.23;;;4.15;;
23543;SDS011;11950;51.230;4.012;2024-01-10T09:48:43;11.47;;;4.30;;
23543;SDS011;11950;51.230;4.012;2024-01-10T09:51:09;9.30;;;4.27;;
23543;SDS011;11950;51.230;4.012;2024-01-10T09:53:37;11.73;;;4.37;;
23543;SDS011;11950;51.230;4.012;2024-01-10T09:56:09;10.75;;;4.25;;
23543;SDS011;11950;51.230;4.012;2024-01-10T09:58:36;9.10;;;4.18;;
23543;SDS011;11950;51.230;4.012;2024-01-10T10:01:05;8.80;;;4.13;;
23543;SDS011;11950;51.230;4.012;2024-01-10T10:03:33;12.73;;;4.63;;
23543;SDS011;11950;51.230;4.012;2024-01-10T10:06:03;7.22;;;3.72;;
23543;SDS011;11950;51.230;4.012;2024-01-10T10:08:30;9.38;;;4.10;;
23543;SDS011;11950;51.230;4.012;2024-01-10T10:10:56;12.70;;;4.88;;
23543;SDS011;11950;51.230;4.012;2024-01-10T10:13:28;8.13;;;4.57;;
23543;SDS011;11950;51.230;4.012;2024-01-10T10:15:59;9.75;;;4.60;;
23543;SDS011;11950;51.230;4.012;2024-01-10T10:18:30;8.80;;;3.97;;
23543;SDS011;11950;51.230;4.012;2024-01-10T10:21:09;6.97;;;4.13;;
23543;SDS011;11950;51.230;4.012;2024-01-10T10:23:38;10.73;;;4.53;;
23543;SDS011;11950;51.230;4.012;2024-01-10T10:26:11;10.43;;;4.60;;
23543;SDS011;11950;51.230;4.012;2024-01-10T10:28:48;7.82;;;4.50;;
23543;SDS011;11950;51.230;4.012;2024-01-10T10:31:15;13.35;;;5.20;;
23543;SDS011;11950;51.230;4.012;2024-01-10T10:33:44;13.43;;;5.28;;
23543;SDS011;11950;51.230;4.012;2024-01-10T10:36:10;8.85;;;4.78;;
23543;SDS011;11950;51.230;4.012;2024-01-10T10:38:39;12.68;;;5.40;;
23543;SDS011;11950;51.230;4.012;2024-01-10T10:41:06;12.13;;;5.45;;
23543;SDS011;11950;51.230;4.012;2024-01-10T10:43:42;10.15;;;5.32;;
23543;SDS011;11950;51.230;4.012;2024-01-10T10:46:08;11.93;;;5.07;;
23543;SDS011;11950;51.230;4.012;2024-01-10T10:48:38;10.75;;;5.13;;
23543;SDS011;11950;51.230;4.012;2024-01-10T10:51:05;9.23;;;4.85;;
23543;SDS011;11950;51.230;4.012;2024-01-10T10:53:37;10.15;;;4.82;;
23543;SDS011;11950;51.230;4.012;2024-01-10T10:56:04;13.25;;;6.00;;
23543;SDS011;11950;51.230;4.012;2024-01-10T10:58:39;11.40;;;5.70;;
23543;SDS011;11950;51.230;4.012;2024-01-10T11:01:08;10.48;;;4.93;;
23543;SDS011;11950;51.230;4.012;2024-01-10T11:03:37;10.25;;;5.00;;
23543;SDS011;11950;51.230;4.012;2024-01-10T11:06:10;13.32;;;5.60;;
23543;SDS011;11950;51.230;4.012;2024-01-10T11:08:37;9.57;;;4.97;;
23543;SDS011;11950;51.230;4.012;2024-01-10T11:11:05;10.55;;;5.78;;
23543;SDS011;11950;51.230;4.012;2024-01-10T11:22:04;14.43;;;6.07;;
23543;SDS011;11950;51.230;4.012;2024-01-10T11:24:48;10.13;;;3.90;;
23543;SDS011;11950;51.230;4.012;2024-01-10T11:27:14;9.02;;;4.93;;
23543;SDS011;11950;51.230;4.012;2024-01-10T11:29:41;13.45;;;5.18;;
23543;SDS011;11950;51.230;4.012;2024-01-10T11:32:17;11.38;;;5.70;;
23543;SDS011;11950;51.230;4.012;2024-01-10T11:35:34;12.23;;;5.75;;
23543;SDS011;11950;51.230;4.012;2024-01-10T11:37:45;12.95;;;5.95;;
23543;SDS011;11950;51.230;4.012;2024-01-10T11:40:13;12.40;;;6.00;;
23543;SDS011;11950;51.230;4.012;2024-01-10T11:42:43;12.07;;;5.68;;
23543;SDS011;11950;51.230;4.012;2024-01-10T11:45:35;11.98;;;5.13;;
23543;SDS011;11950;51.230;4.012;2024-01-10T11:48:02;13.45;;;6.05;;
23543;SDS011;11950;51.230;4.012;2024-01-10T11:50:28;10.77;;;5.45;;
23543;SDS011;11950;51.230;4.012;2024-01-10T11:52:56;11.43;;;5.68;;
23543;SDS011;11950;51.230;4.012;2024-01-10T11:58:20;9.80;;;5.72;;
23543;SDS011;11950;51.230;4.012;2024-01-10T12:00:49;12.10;;;5.88;;
23543;SDS011;11950;51.230;4.012;2024-01-10T12:03:16;12.95;;;6.70;;
23543;SDS011;11950;51.230;4.012;2024-01-10T12:05:44;10.77;;;5.40;;
23543;SDS011;11950;51.230;4.012;2024-01-10T12:08:10;15.68;;;5.85;;
23543;SDS011;11950;51.230;4.012;2024-01-10T12:10:45;14.35;;;5.78;;
23543;SDS011;11950;51.230;4.012;2024-01-10T12:13:11;12.55;;;5.75;;
23543;SDS011;11950;51.230;4.012;2024-01-10T12:15:38;11.75;;;6.70;;
23543;SDS011;11950;51.230;4.012;2024-01-10T12:18:05;12.20;;;5.75;;
23543;SDS011;11950;51.230;4.012;2024-01-10T12:20:32;10.40;;;5.75;;
23543;SDS011;11950;51.230;4.012;2024-01-10T12:22:58;9.75;;;5.88;;
23543;SDS011;11950;51.230;4.012;2024-01-10T12:25:24;13.73;;;5.78;;
23543;SDS011;11950;51.230;4.012;2024-01-10T12:27:52;12.90;;;5.55;;
23543;SDS011;11950;51.230;4.012;2024-01-10T12:30:18;13.23;;;6.45;;
23543;SDS011;11950;51.230;4.012;2024-01-10T12:32:50;13.65;;;6.13;;
23543;SDS011;11950;51.230;4.012;2024-01-10T12:35:17;12.82;;;6.05;;
23543;SDS011;11950;51.230;4.012;2024-01-10T12:37:55;12.68;;;6.05;;
23543;SDS011;11950;51.230;4.012;2024-01-10T12:40:21;12.35;;;6.28;;
23543;SDS011;11950;51.230;4.012;2024-01-10T12:42:48;11.55;;;5.68;;
23543;SDS011;11950;51.230;4.012;2024-01-10T12:45:21;10.68;;;5.95;;
23543;SDS011;11950;51.230;4.012;2024-01-10T12:47:48;15.40;;;6.65;;
23543;SDS011;11950;51.230;4.012;2024-01-10T12:50:14;15.82;;;6.57;;
23543;SDS011;11950;51.230;4.012;2024-01-10T12:52:41;14.02;;;6.78;;
23543;SDS011;11950;51.230;4.012;2024-01-10T12:55:08;13.27;;;6.30;;
23543;SDS011;11950;51.230;4.012;2024-01-10T12:57:35;12.00;;;6.22;;
23543;SDS011;11950;51.230;4.012;2024-01-10T13:00:02;11.50;;;6.18;;
23543;SDS011;11950;51.230;4.012;2024-01-10T13:02:32;14.50;;;6.43;;
23543;SDS011;11950;51.230;4.012;2024-01-10T13:05:03;13.85;;;6.57;;
23543;SDS011;11950;51.230;4.012;2024-01-10T13:07:30;16.85;;;6.97;;
23543;SDS011;11950;51.230;4.012;2024-01-10T13:09:59;13.95;;;6.93;;
23543;SDS011;11950;51.230;4.012;2024-01-10T13:12:26;14.25;;;6.88;;
23543;SDS011;11950;51.230;4.012;2024-01-10T13:14:52;12.63;;;5.93;;
23543;SDS011;11950;51.230;4.012;2024-01-10T13:17:19;11.70;;;6.15;;
23543;SDS011;11950;51.230;4.012;2024-01-10T13:19:47;11.65;;;6.47;;
23543;SDS011;11950;51.230;4.012;2024-01-10T13:22:17;12.68;;;6.85;;
23543;SDS011;11950;51.230;4.012;2024-01-10T13:24:45;14.65;;;6.45;;
23543;SDS011;11950;51.230;4.012;2024-01-10T13:27:12;18.05;;;6.97;;
23543;SDS011;11950;51.230;4.012;2024-01-10T13:29:38;12.00;;;5.78;;
23543;SDS011;11950;51.230;4.012;2024-01-10T13:32:05;14.40;;;6.88;;
23543;SDS011;11950;51.230;4.012;2024-01-10T13:34:32;17.02;;;7.30;;
23543;SDS011;11950;51.230;4.012;2024-01-10T13:36:58;15.95;;;6.82;;
23543;SDS011;11950;51.230;4.012;2024-01-10T13:39:25;15.00;;;6.65;;
23543;SDS011;11950;51.230;4.012;2024-01-10T13:41:51;18.88;;;7.43;;
23543;SDS011;11950;51.230;4.012;2024-01-10T13:44:18;13.20;;;6.53;;
23543;SDS011;11950;51.230;4.012;2024-01-10T13:46:45;11.63;;;6.65;;
23543;SDS011;11950;51.230;4.012;2024-01-10T13:49:11;15.55;;;6.43;;
23543;SDS011;11950;51.230;4.012;2024-01-10T13:51:37;16.15;;;6.43;;
23543;SDS011;11950;51.230;4.012;2024-01-10T13:54:03;15.60;;;6.65;;
23543;SDS011;11950;51.230;4.012;2024-01-10T13:56:30;14.32;;;6.78;;
23543;SDS011;11950;51.230;4.012;2024-01-10T13:58:57;13.98;;;7.53;;
23543;SDS011;11950;51.230;4.012;2024-01-10T14:01:23;11.15;;;6.10;;
23543;SDS011;11950;51.230;4.012;2024-01-10T14:03:50;13.68;;;7.07;;
23543;SDS011;11950;51.230;4.012;2024-01-10T14:06:16;16.88;;;6.78;;
23543;SDS011;11950;51.230;4.012;2024-01-10T14:08:43;15.98;;;6.80;;
23543;SDS011;11950;51.230;4.012;2024-01-10T14:11:12;13.70;;;6.72;;
23543;SDS011;11950;51.230;4.012;2024-01-10T14:13:38;13.63;;;6.78;;
23543;SDS011;11950;51.230;4.012;2024-01-10T14:16:04;13.20;;;6.38;;
23543;SDS011;11950;51.230;4.012;2024-01-10T14:18:31;10.98;;;6.13;;
23543;SDS011;11950;51.230;4.012;2024-01-10T14:20:57;11.98;;;6.68;;
23543;SDS011;11950;51.230;4.012;2024-01-10T14:23:24;13.13;;;6.60;;
23543;SDS011;11950;51.230;4.012;2024-01-10T14:25:50;19.77;;;7.38;;
23543;SDS011;11950;51.230;4.012;2024-01-10T14:28:19;13.10;;;7.20;;
23543;SDS011;11950;51.230;4.012;2024-01-10T14:30:48;14.02;;;6.57;;
23543;SDS011;11950;51.230;4.012;2024-01-10T14:33:14;13.82;;;7.07;;
23543;SDS011;11950;51.230;4.012;2024-01-10T14:35:41;15.45;;;6.82;;
23543;SDS011;11950;51.230;4.012;2024-01-10T14:38:07;13.57;;;7.15;;
23543;SDS011;11950;51.230;4.012;2024-01-10T14:40:33;12.68;;;6.93;;
23543;SDS011;11950;51.230;4.012;2024-01-10T14:42:59;15.73;;;6.20;;
23543;SDS011;11950;51.230;4.012;2024-01-10T14:45:26;12.98;;;6.05;;
23543;SDS011;11950;51.230;4.012;2024-01-10T14:47:52;15.70;;;7.13;;
23543;SDS011;11950;51.230;4.012;2024-01-10T14:50:18;15.30;;;6.60;;
23543;SDS011;11950;51.230;4.012;2024-01-10T14:52:45;15.15;;;6.35;;
23543;SDS011;11950;51.230;4.012;2024-01-10T14:55:11;12.98;;;6.90;;